sensor_id;sensor_type;location;lat;lon;timestamp;P1;durP1;ratioP1;P2;durP2;ratioP2
3006;SDS011;1513;47.650;10.720;2022-10-31T00:02:25;4.03;;;2.10;;
3006;SDS011;1513;47.650;10.720;2022-10-31T00:05:29;6.93;;;2.63;;
3006;SDS011;1513;47.650;10.720;2022-10-31T00:08:32;11.50;;;3.10;;
3006;SDS011;1513;47.650;10.720;2022-10-31T00:11:36;7.47;;;3.30;;
3006;SDS011;1513;47.650;10.720;2022-10-31T00:14:40;8.23;;;2.80;;
3006;SDS011;1513;47.650;10.720;2022-10-31T00:17:43;8.20;;;3.77;;
3006;SDS011;1513;47.650;10.720;2022-10-31T00:20:47;8.07;;;3.00;;
3006;SDS011;1513;47.650;10.720;2022-10-31T00:23:50;8.10;;;3.43;;
3006;SDS011;1513;47.650;10.720;2022-10-31T00:26:54;9.53;;;3.23;;
3006;SDS011;1513;47.650;10.720;2022-10-31T00:29:58;11.63;;;2.93;;
3006;SDS011;1513;47.650;10.720;2022-10-31T00:33:03;8.90;;;2.90;;
3006;SDS011;1513;47.650;10.720;2022-10-31T00:36:09;5.40;;;2.70;;
3006;SDS011;1513;47.650;10.720;2022-10-31T00:39:15;4.93;;;2.77;;
3006;SDS011;1513;47.650;10.720;2022-10-31T00:42:19;13.73;;;3.13;;
3006;SDS011;1513;47.650;10.720;2022-10-31T00:45:22;5.43;;;2.90;;
3006;SDS011;1513;47.650;10.720;2022-10-31T00:48:25;9.13;;;2.90;;
3006;SDS011;1513;47.650;10.720;2022-10-31T00:51:29;10.03;;;3.10;;
3006;SDS011;1513;47.650;10.720;2022-10-31T00:54:33;3.97;;;2.57;;
3006;SDS011;1513;47.650;10.720;2022-10-31T00:57:36;3.90;;;2.17;;
3006;SDS011;1513;47.650;10.720;2022-10-31T01:00:39;9.93;;;3.03;;
3006;SDS011;1513;47.650;10.720;2022-10-31T01:03:43;5.80;;;2.97;;
3006;SDS011;1513;47.650;10.720;2022-10-31T01:06:46;3.77;;;2.23;;
3006;SDS011;1513;47.650;10.720;2022-10-31T01:09:50;4.67;;;2.37;;
3006;SDS011;1513;47.650;10.720;2022-10-31T01:12:53;5.40;;;2.10;;
3006;SDS011;1513;47.650;10.720;2022-10-31T01:15:57;7.80;;;2.90;;
3006;SDS011;1513;47.650;10.720;2022-10-31T01:19:01;6.63;;;2.50;;
3006;SDS011;1513;47.650;10.720;2022-10-31T01:22:05;4.20;;;2.67;;
3006;SDS011;1513;47.650;10.720;2022-10-31T01:25:09;7.67;;;2.60;;
3006;SDS011;1513;47.650;10.720;2022-10-31T01:28:13;4.03;;;2.93;;
3006;SDS011;1513;47.650;10.720;2022-10-31T01:31:18;9.97;;;2.87;;
3006;SDS011;1513;47.650;10.720;2022-10-31T01:34:22;5.17;;;2.50;;
3006;SDS011;1513;47.650;10.720;2022-10-31T01:37:25;6.77;;;2.80;;
3006;SDS011;1513;47.650;10.720;2022-10-31T01:40:29;4.80;;;2.50;;
3006;SDS011;1513;47.650;10.720;2022-10-31T01:50:02;5.30;;;2.10;;
3006;SDS011;1513;47.650;10.720;2022-10-31T01:53:07;3.45;;;2.33;;
3006;SDS011;1513;47.650;10.720;2022-10-31T01:56:13;6.47;;;2.50;;
3006;SDS011;1513;47.650;10.720;2022-10-31T01:59:17;3.60;;;2.10;;
3006;SDS011;1513;47.650;10.720;2022-10-31T02:02:22;7.90;;;2.23;;
3006;SDS011;1513;47.650;10.720;2022-10-31T02:05:27;7.03;;;2.60;;
3006;SDS011;1513;47.650;10.720;2022-10-31T02:08:33;4.97;;;2.10;;
3006;SDS011;1513;47.650;10.720;2022-10-31T02:11:37;9.43;;;2.90;;
3006;SDS011;1513;47.650;10.720;2022-10-31T02:14:41;6.77;;;2.70;;
3006;SDS011;1513;47.650;10.720;2022-10-31T02:17:45;4.83;;;2.30;;
3006;SDS011;1513;47.650;10.720;2022-10-31T02:24:11;4.75;;;2.58;;
3006;SDS011;1513;47.650;10.720;2022-10-31T02:31:15;4.40;;;2.50;;
3006;SDS011;1513;47.650;10.720;2022-10-31T02:48:09;9.93;;;3.03;;
3006;SDS011;1513;47.650;10.720;2022-10-31T02:51:17;3.90;;;2.07;;
3006;SDS011;1513;47.650;10.720;2022-10-31T02:54:22;5.57;;;2.53;;
3006;SDS011;1513;47.650;10.720;2022-10-31T02:57:28;9.20;;;2.40;;
3006;SDS011;1513;47.650;10.720;2022-10-31T03:00:40;9.47;;;2.80;;
3006;SDS011;1513;47.650;10.720;2022-10-31T03:14:00;6.80;;;2.83;;
3006;SDS011;1513;47.650;10.720;2022-10-31T03:17:16;7.43;;;2.23;;
3006;SDS011;1513;47.650;10.720;2022-10-31T03:20:26;4.85;;;2.40;;
3006;SDS011;1513;47.650;10.720;2022-10-31T03:23:42;11.40;;;3.20;;
3006;SDS011;1513;47.650;10.720;2022-10-31T03:26:48;5.87;;;2.43;;
3006;SDS011;1513;47.650;10.720;2022-10-31T03:29:54;7.87;;;2.67;;
3006;SDS011;1513;47.650;10.720;2022-10-31T03:33:00;4.50;;;2.45;;
3006;SDS011;1513;47.650;10.720;2022-10-31T03:36:05;5.47;;;2.50;;
3006;SDS011;1513;47.650;10.720;2022-10-31T03:39:11;4.27;;;2.30;;
3006;SDS011;1513;47.650;10.720;2022-10-31T03:42:21;9.32;;;2.63;;
3006;SDS011;1513;47.650;10.720;2022-10-31T03:45:30;5.90;;;2.50;;
3006;SDS011;1513;47.650;10.720;2022-10-31T03:48:33;8.23;;;2.57;;
3006;SDS011;1513;47.650;10.720;2022-10-31T03:54:56;2.97;;;1.90;;
3006;SDS011;1513;47.650;10.720;2022-10-31T03:58:03;7.50;;;2.20;;
3006;SDS011;1513;47.650;10.720;2022-10-31T04:01:11;4.77;;;2.40;;
3006;SDS011;1513;47.650;10.720;2022-10-31T04:04:15;7.03;;;2.27;;
3006;SDS011;1513;47.650;10.720;2022-10-31T04:07:19;6.80;;;2.67;;
3006;SDS011;1513;47.650;10.720;2022-10-31T04:10:24;7.33;;;2.80;;
3006;SDS011;1513;47.650;10.720;2022-10-31T04:13:29;7.30;;;2.63;;
3006;SDS011;1513;47.650;10.720;2022-10-31T04:16:34;6.17;;;2.10;;
3006;SDS011;1513;47.650;10.720;2022-10-31T04:19:38;9.07;;;2.40;;
3006;SDS011;1513;47.650;10.720;2022-10-31T04:22:42;7.93;;;3.27;;
3006;SDS011;1513;47.650;10.720;2022-10-31T04:25:45;6.30;;;2.57;;
3006;SDS011;1513;47.650;10.720;2022-10-31T04:28:49;5.25;;;2.85;;
3006;SDS011;1513;47.650;10.720;2022-10-31T04:31:52;6.47;;;2.47;;
3006;SDS011;1513;47.650;10.720;2022-10-31T04:34:55;4.83;;;1.83;;
3006;SDS011;1513;47.650;10.720;2022-10-31T04:37:59;11.35;;;2.70;;
3006;SDS011;1513;47.650;10.720;2022-10-31T04:41:02;10.70;;;4.43;;
3006;SDS011;1513;47.650;10.720;2022-10-31T04:44:05;18.07;;;7.33;;
3006;SDS011;1513;47.650;10.720;2022-10-31T04:47:09;15.07;;;7.27;;
3006;SDS011;1513;47.650;10.720;2022-10-31T04:50:13;13.63;;;5.03;;
3006;SDS011;1513;47.650;10.720;2022-10-31T04:53:16;11.00;;;4.73;;
3006;SDS011;1513;47.650;10.720;2022-10-31T04:56:20;13.90;;;4.57;;
3006;SDS011;1513;47.650;10.720;2022-10-31T04:59:23;32.97;;;10.60;;
3006;SDS011;1513;47.650;10.720;2022-10-31T05:02:27;29.65;;;8.68;;
3006;SDS011;1513;47.650;10.720;2022-10-31T05:05:31;45.85;;;15.15;;
3006;SDS011;1513;47.650;10.720;2022-10-31T05:08:34;58.03;;;20.23;;
3006;SDS011;1513;47.650;10.720;2022-10-31T05:11:38;57.47;;;19.80;;
3006;SDS011;1513;47.650;10.720;2022-10-31T05:14:41;44.00;;;17.83;;
3006;SDS011;1513;47.650;10.720;2022-10-31T05:17:45;21.10;;;7.53;;
3006;SDS011;1513;47.650;10.720;2022-10-31T05:20:48;30.63;;;12.10;;
3006;SDS011;1513;47.650;10.720;2022-10-31T05:23:52;31.23;;;12.00;;
3006;SDS011;1513;47.650;10.720;2022-10-31T05:26:55;23.27;;;9.10;;
3006;SDS011;1513;47.650;10.720;2022-10-31T05:29:59;20.77;;;7.30;;
3006;SDS011;1513;47.650;10.720;2022-10-31T05:33:02;18.30;;;7.60;;
3006;SDS011;1513;47.650;10.720;2022-10-31T05:36:06;10.73;;;5.10;;
3006;SDS011;1513;47.650;10.720;2022-10-31T05:39:09;12.30;;;5.90;;
3006;SDS011;1513;47.650;10.720;2022-10-31T05:42:13;8.65;;;4.68;;
3006;SDS011;1513;47.650;10.720;2022-10-31T05:45:16;6.57;;;2.83;;
3006;SDS011;1513;47.650;10.720;2022-10-31T05:48:21;5.90;;;3.17;;
3006;SDS011;1513;47.650;10.720;2022-10-31T05:51:25;7.20;;;2.80;;
3006;SDS011;1513;47.650;10.720;2022-10-31T05:54:28;6.67;;;2.90;;
3006;SDS011;1513;47.650;10.720;2022-10-31T05:57:31;14.80;;;3.75;;
3006;SDS011;1513;47.650;10.720;2022-10-31T06:00:36;10.52;;;2.78;;
3006;SDS011;1513;47.650;10.720;2022-10-31T06:03:41;15.23;;;4.20;;
3006;SDS011;1513;47.650;10.720;2022-10-31T06:06:44;19.93;;;4.80;;
3006;SDS011;1513;47.650;10.720;2022-10-31T06:09:47;9.90;;;4.20;;
3006;SDS011;1513;47.650;10.720;2022-10-31T06:12:51;15.13;;;4.90;;
3006;SDS011;1513;47.650;10.720;2022-10-31T06:15:55;9.60;;;3.87;;
3006;SDS011;1513;47.650;10.720;2022-10-31T06:18:59;4.03;;;2.40;;
3006;SDS011;1513;47.650;10.720;2022-10-31T06:22:02;5.10;;;3.00;;
3006;SDS011;1513;47.650;10.720;2022-10-31T06:25:05;13.67;;;3.33;;
3006;SDS011;1513;47.650;10.720;2022-10-31T06:28:09;6.57;;;2.53;;
3006;SDS011;1513;47.650;10.720;2022-10-31T06:31:13;5.97;;;2.67;;
3006;SDS011;1513;47.650;10.720;2022-10-31T06:34:16;4.60;;;2.40;;
3006;SDS011;1513;47.650;10.720;2022-10-31T06:37:20;8.10;;;2.80;;
3006;SDS011;1513;47.650;10.720;2022-10-31T06:40:23;7.80;;;2.50;;
3006;SDS011;1513;47.650;10.720;2022-10-31T06:43:27;7.63;;;2.27;;
3006;SDS011;1513;47.650;10.720;2022-10-31T06:46:30;6.27;;;2.63;;
3006;SDS011;1513;47.650;10.720;2022-10-31T06:49:34;13.50;;;2.90;;
3006;SDS011;1513;47.650;10.720;2022-10-31T06:52:37;13.67;;;1.93;;
3006;SDS011;1513;47.650;10.720;2022-10-31T06:55:41;5.55;;;1.95;;
3006;SDS011;1513;47.650;10.720;2022-10-31T06:58:45;6.10;;;2.50;;
3006;SDS011;1513;47.650;10.720;2022-10-31T07:01:48;5.33;;;2.43;;
3006;SDS011;1513;47.650;10.720;2022-10-31T07:04:52;3.90;;;2.10;;
3006;SDS011;1513;47.650;10.720;2022-10-31T07:07:57;10.23;;;3.40;;
3006;SDS011;1513;47.650;10.720;2022-10-31T07:11:02;10.97;;;3.70;;
3006;SDS011;1513;47.650;10.720;2022-10-31T07:14:06;5.70;;;2.97;;
3006;SDS011;1513;47.650;10.720;2022-10-31T07:17:09;6.40;;;2.93;;
3006;SDS011;1513;47.650;10.720;2022-10-31T07:20:13;14.60;;;3.10;;
3006;SDS011;1513;47.650;10.720;2022-10-31T07:23:16;5.70;;;2.30;;
3006;SDS011;1513;47.650;10.720;2022-10-31T07:26:20;11.03;;;4.17;;
3006;SDS011;1513;47.650;10.720;2022-10-31T07:29:23;9.33;;;4.30;;
3006;SDS011;1513;47.650;10.720;2022-10-31T07:32:27;10.13;;;4.10;;
3006;SDS011;1513;47.650;10.720;2022-10-31T07:35:30;10.47;;;4.50;;
3006;SDS011;1513;47.650;10.720;2022-10-31T07:38:35;17.80;;;5.23;;
3006;SDS011;1513;47.650;10.720;2022-10-31T07:41:38;11.52;;;5.35;;
3006;SDS011;1513;47.650;10.720;2022-10-31T07:44:42;7.53;;;4.40;;
3006;SDS011;1513;47.650;10.720;2022-10-31T07:47:49;6.40;;;3.90;;
3006;SDS011;1513;47.650;10.720;2022-10-31T07:50:54;8.83;;;4.07;;
3006;SDS011;1513;47.650;10.720;2022-10-31T07:53:58;18.58;;;4.43;;
3006;SDS011;1513;47.650;10.720;2022-10-31T07:57:01;5.67;;;2.30;;
3006;SDS011;1513;47.650;10.720;2022-10-31T08:00:05;7.55;;;2.78;;
3006;SDS011;1513;47.650;10.720;2022-10-31T08:03:14;3.43;;;2.80;;
3006;SDS011;1513;47.650;10.720;2022-10-31T08:06:19;11.50;;;3.50;;
3006;SDS011;1513;47.650;10.720;2022-10-31T08:09:23;5.50;;;2.93;;
3006;SDS011;1513;47.650;10.720;2022-10-31T08:12:26;5.50;;;2.63;;
3006;SDS011;1513;47.650;10.720;2022-10-31T08:15:30;6.40;;;3.67;;
3006;SDS011;1513;47.650;10.720;2022-10-31T08:18:33;10.63;;;2.70;;
3006;SDS011;1513;47.650;10.720;2022-10-31T08:21:40;7.17;;;3.50;;
3006;SDS011;1513;47.650;10.720;2022-10-31T08:24:43;7.07;;;3.70;;
3006;SDS011;1513;47.650;10.720;2022-10-31T08:27:50;10.27;;;3.25;;
3006;SDS011;1513;47.650;10.720;2022-10-31T08:30:56;7.57;;;2.77;;
3006;SDS011;1513;47.650;10.720;2022-10-31T08:34:00;9.13;;;3.83;;
3006;SDS011;1513;47.650;10.720;2022-10-31T08:37:04;7.00;;;3.30;;
3006;SDS011;1513;47.650;10.720;2022-10-31T08:40:08;7.10;;;3.20;;
3006;SDS011;1513;47.650;10.720;2022-10-31T08:43:14;8.93;;;2.80;;
3006;SDS011;1513;47.650;10.720;2022-10-31T08:46:18;7.83;;;3.27;;
3006;SDS011;1513;47.650;10.720;2022-10-31T08:49:22;5.03;;;3.43;;
3006;SDS011;1513;47.650;10.720;2022-10-31T08:52:25;8.73;;;2.90;;
3006;SDS011;1513;47.650;10.720;2022-10-31T08:55:28;15.50;;;4.20;;
3006;SDS011;1513;47.650;10.720;2022-10-31T08:58:32;6.50;;;3.43;;
3006;SDS011;1513;47.650;10.720;2022-10-31T09:01:35;7.70;;;3.13;;
3006;SDS011;1513;47.650;10.720;2022-10-31T09:04:39;14.07;;;3.47;;
3006;SDS011;1513;47.650;10.720;2022-10-31T09:07:42;7.13;;;3.13;;
3006;SDS011;1513;47.650;10.720;2022-10-31T09:10:45;10.90;;;2.93;;
3006;SDS011;1513;47.650;10.720;2022-10-31T09:13:49;4.83;;;3.00;;
3006;SDS011;1513;47.650;10.720;2022-10-31T09:16:55;8.57;;;2.70;;
3006;SDS011;1513;47.650;10.720;2022-10-31T09:19:58;5.63;;;2.50;;
3006;SDS011;1513;47.650;10.720;2022-10-31T09:23:03;8.30;;;2.20;;
3006;SDS011;1513;47.650;10.720;2022-10-31T09:26:12;4.20;;;2.40;;
3006;SDS011;1513;47.650;10.720;2022-10-31T09:29:16;6.17;;;2.27;;
3006;SDS011;1513;47.650;10.720;2022-10-31T09:32:19;5.70;;;2.27;;
3006;SDS011;1513;47.650;10.720;2022-10-31T09:35:23;6.53;;;2.33;;
3006;SDS011;1513;47.650;10.720;2022-10-31T09:38:27;8.50;;;3.00;;
3006;SDS011;1513;47.650;10.720;2022-10-31T09:45:03;6.87;;;2.60;;
3006;SDS011;1513;47.650;10.720;2022-10-31T09:51:39;9.70;;;2.75;;
3006;SDS011;1513;47.650;10.720;2022-10-31T09:55:04;2.33;;;1.90;;
3006;SDS011;1513;47.650;10.720;2022-10-31T09:58:16;5.43;;;2.10;;
3006;SDS011;1513;47.650;10.720;2022-10-31T10:05:02;4.00;;;1.80;;
3006;SDS011;1513;47.650;10.720;2022-10-31T10:08:16;3.50;;;2.10;;
3006;SDS011;1513;47.650;10.720;2022-10-31T10:17:37;8.03;;;2.47;;
3006;SDS011;1513;47.650;10.720;2022-10-31T10:24:07;7.03;;;2.70;;
3006;SDS011;1513;47.650;10.720;2022-10-31T10:33:36;6.67;;;2.20;;
3006;SDS011;1513;47.650;10.720;2022-10-31T10:36:42;6.97;;;2.50;;
3006;SDS011;1513;47.650;10.720;2022-10-31T10:39:48;8.37;;;2.70;;
3006;SDS011;1513;47.650;10.720;2022-10-31T10:49:54;4.50;;;2.90;;
3006;SDS011;1513;47.650;10.720;2022-10-31T10:53:02;9.53;;;3.30;;
3006;SDS011;1513;47.650;10.720;2022-10-31T10:56:40;8.57;;;3.67;;
3006;SDS011;1513;47.650;10.720;2022-10-31T10:59:45;8.73;;;3.60;;
3006;SDS011;1513;47.650;10.720;2022-10-31T11:02:49;11.73;;;3.37;;
3006;SDS011;1513;47.650;10.720;2022-10-31T11:05:54;8.67;;;3.43;;
3006;SDS011;1513;47.650;10.720;2022-10-31T11:09:08;5.73;;;2.67;;
3006;SDS011;1513;47.650;10.720;2022-10-31T11:12:20;3.93;;;2.43;;
3006;SDS011;1513;47.650;10.720;2022-10-31T11:15:31;17.97;;;4.30;;
3006;SDS011;1513;47.650;10.720;2022-10-31T11:18:42;6.77;;;3.37;;
3006;SDS011;1513;47.650;10.720;2022-10-31T11:21:48;6.17;;;2.50;;
3006;SDS011;1513;47.650;10.720;2022-10-31T11:24:52;11.63;;;3.03;;
3006;SDS011;1513;47.650;10.720;2022-10-31T11:28:04;6.83;;;2.60;;
3006;SDS011;1513;47.650;10.720;2022-10-31T11:31:13;10.10;;;3.07;;
3006;SDS011;1513;47.650;10.720;2022-10-31T11:37:39;9.20;;;3.20;;
3006;SDS011;1513;47.650;10.720;2022-10-31T11:40:51;7.90;;;2.47;;
3006;SDS011;1513;47.650;10.720;2022-10-31T11:44:01;11.90;;;2.90;;
3006;SDS011;1513;47.650;10.720;2022-10-31T11:47:05;8.63;;;3.13;;
3006;SDS011;1513;47.650;10.720;2022-10-31T11:50:37;8.70;;;3.17;;
3006;SDS011;1513;47.650;10.720;2022-10-31T11:53:49;10.73;;;2.87;;
3006;SDS011;1513;47.650;10.720;2022-10-31T11:56:54;11.30;;;3.23;;
3006;SDS011;1513;47.650;10.720;2022-10-31T11:59:59;10.20;;;3.80;;
3006;SDS011;1513;47.650;10.720;2022-10-31T12:06:20;12.53;;;3.17;;
3006;SDS011;1513;47.650;10.720;2022-10-31T12:09:27;10.43;;;3.80;;
3006;SDS011;1513;47.650;10.720;2022-10-31T12:15:53;7.00;;;3.07;;
3006;SDS011;1513;47.650;10.720;2022-10-31T12:19:06;10.83;;;3.77;;
3006;SDS011;1513;47.650;10.720;2022-10-31T12:32:26;6.77;;;2.70;;
3006;SDS011;1513;47.650;10.720;2022-10-31T12:45:50;15.00;;;3.10;;
3006;SDS011;1513;47.650;10.720;2022-10-31T12:59:29;5.60;;;2.20;;
3006;SDS011;1513;47.650;10.720;2022-10-31T13:06:08;8.30;;;2.80;;
3006;SDS011;1513;47.650;10.720;2022-10-31T13:09:25;9.30;;;2.80;;
3006;SDS011;1513;47.650;10.720;2022-10-31T13:12:34;6.53;;;2.57;;
3006;SDS011;1513;47.650;10.720;2022-10-31T13:15:45;4.10;;;2.30;;
3006;SDS011;1513;47.650;10.720;2022-10-31T13:18:56;6.23;;;2.80;;
3006;SDS011;1513;47.650;10.720;2022-10-31T13:25:27;9.00;;;2.63;;
3006;SDS011;1513;47.650;10.720;2022-10-31T13:32:06;7.43;;;2.38;;
3006;SDS011;1513;47.650;10.720;2022-10-31T13:35:14;9.27;;;2.87;;
3006;SDS011;1513;47.650;10.720;2022-10-31T13:44:40;6.00;;;2.10;;
3006;SDS011;1513;47.650;10.720;2022-10-31T13:47:54;3.03;;;2.30;;
3006;SDS011;1513;47.650;10.720;2022-10-31T13:51:00;4.60;;;2.70;;
3006;SDS011;1513;47.650;10.720;2022-10-31T13:54:20;9.53;;;3.00;;
3006;SDS011;1513;47.650;10.720;2022-10-31T14:00:35;9.87;;;2.77;;
3006;SDS011;1513;47.650;10.720;2022-10-31T14:03:39;9.80;;;3.73;;
3006;SDS011;1513;47.650;10.720;2022-10-31T14:06:55;9.10;;;2.77;;
3006;SDS011;1513;47.650;10.720;2022-10-31T14:13:31;13.43;;;3.40;;
3006;SDS011;1513;47.650;10.720;2022-10-31T14:16:44;6.68;;;2.67;;
3006;SDS011;1513;47.650;10.720;2022-10-31T14:20:02;8.05;;;2.72;;
3006;SDS011;1513;47.650;10.720;2022-10-31T14:26:38;14.07;;;3.07;;
3006;SDS011;1513;47.650;10.720;2022-10-31T14:29:41;6.07;;;2.60;;
3006;SDS011;1513;47.650;10.720;2022-10-31T14:32:47;7.80;;;2.57;;
3006;SDS011;1513;47.650;10.720;2022-10-31T14:36:18;8.23;;;2.50;;
3006;SDS011;1513;47.650;10.720;2022-10-31T14:46:30;5.50;;;2.80;;
3006;SDS011;1513;47.650;10.720;2022-10-31T14:53:30;6.10;;;3.23;;
3006;SDS011;1513;47.650;10.720;2022-10-31T14:56:37;6.13;;;2.53;;
3006;SDS011;1513;47.650;10.720;2022-10-31T14:59:49;13.23;;;3.23;;
3006;SDS011;1513;47.650;10.720;2022-10-31T15:03:06;10.20;;;3.80;;
3006;SDS011;1513;47.650;10.720;2022-10-31T15:06:20;4.17;;;3.23;;
3006;SDS011;1513;47.650;10.720;2022-10-31T15:09:26;6.40;;;3.37;;
3006;SDS011;1513;47.650;10.720;2022-10-31T15:12:34;6.87;;;3.10;;
3006;SDS011;1513;47.650;10.720;2022-10-31T15:15:41;6.83;;;3.33;;
3006;SDS011;1513;47.650;10.720;2022-10-31T15:18:46;11.90;;;3.90;;
3006;SDS011;1513;47.650;10.720;2022-10-31T15:21:52;10.67;;;3.87;;
3006;SDS011;1513;47.650;10.720;2022-10-31T15:24:57;14.67;;;4.37;;
3006;SDS011;1513;47.650;10.720;2022-10-31T15:28:00;12.97;;;3.63;;
3006;SDS011;1513;47.650;10.720;2022-10-31T15:31:04;10.27;;;3.60;;
3006;SDS011;1513;47.650;10.720;2022-10-31T15:34:16;7.10;;;4.13;;
3006;SDS011;1513;47.650;10.720;2022-10-31T15:37:29;12.77;;;5.13;;
3006;SDS011;1513;47.650;10.720;2022-10-31T15:40:32;12.00;;;4.60;;
3006;SDS011;1513;47.650;10.720;2022-10-31T15:43:36;12.50;;;6.10;;
3006;SDS011;1513;47.650;10.720;2022-10-31T15:46:41;13.17;;;5.87;;
3006;SDS011;1513;47.650;10.720;2022-10-31T15:49:48;12.97;;;5.50;;
3006;SDS011;1513;47.650;10.720;2022-10-31T15:52:53;11.60;;;5.10;;
3006;SDS011;1513;47.650;10.720;2022-10-31T15:56:01;10.83;;;5.20;;
3006;SDS011;1513;47.650;10.720;2022-10-31T15:59:16;18.27;;;6.97;;
3006;SDS011;1513;47.650;10.720;2022-10-31T16:02:24;17.77;;;7.80;;
3006;SDS011;1513;47.650;10.720;2022-10-31T16:05:34;12.17;;;6.90;;
3006;SDS011;1513;47.650;10.720;2022-10-31T16:08:46;16.27;;;7.32;;
3006;SDS011;1513;47.650;10.720;2022-10-31T16:11:52;18.67;;;6.37;;
3006;SDS011;1513;47.650;10.720;2022-10-31T16:14:55;14.90;;;7.17;;
3006;SDS011;1513;47.650;10.720;2022-10-31T16:17:59;22.73;;;8.07;;
3006;SDS011;1513;47.650;10.720;2022-10-31T16:21:02;9.87;;;5.70;;
3006;SDS011;1513;47.650;10.720;2022-10-31T16:24:26;16.00;;;5.70;;
3006;SDS011;1513;47.650;10.720;2022-10-31T16:27:32;16.40;;;4.60;;
3006;SDS011;1513;47.650;10.720;2022-10-31T16:33:41;13.60;;;5.40;;
3006;SDS011;1513;47.650;10.720;2022-10-31T16:36:45;11.57;;;5.63;;
3006;SDS011;1513;47.650;10.720;2022-10-31T16:39:49;13.10;;;6.43;;
3006;SDS011;1513;47.650;10.720;2022-10-31T16:42:52;14.23;;;6.20;;
3006;SDS011;1513;47.650;10.720;2022-10-31T16:45:56;15.13;;;6.07;;
3006;SDS011;1513;47.650;10.720;2022-10-31T16:48:59;11.63;;;6.30;;
3006;SDS011;1513;47.650;10.720;2022-10-31T16:52:03;22.47;;;9.10;;
3006;SDS011;1513;47.650;10.720;2022-10-31T16:55:10;15.47;;;6.30;;
3006;SDS011;1513;47.650;10.720;2022-10-31T16:58:17;20.80;;;8.23;;
3006;SDS011;1513;47.650;10.720;2022-10-31T17:01:28;15.83;;;7.87;;
3006;SDS011;1513;47.650;10.720;2022-10-31T17:04:32;29.93;;;11.13;;
3006;SDS011;1513;47.650;10.720;2022-10-31T17:07:36;20.70;;;9.30;;
3006;SDS011;1513;47.650;10.720;2022-10-31T17:10:39;14.23;;;7.30;;
3006;SDS011;1513;47.650;10.720;2022-10-31T17:13:44;18.48;;;6.60;;
3006;SDS011;1513;47.650;10.720;2022-10-31T17:16:48;18.13;;;6.70;;
3006;SDS011;1513;47.650;10.720;2022-10-31T17:19:51;14.60;;;6.30;;
3006;SDS011;1513;47.650;10.720;2022-10-31T17:22:55;22.43;;;7.20;;
3006;SDS011;1513;47.650;10.720;2022-10-31T17:25:59;11.97;;;5.57;;
3006;SDS011;1513;47.650;10.720;2022-10-31T17:29:03;18.73;;;9.10;;
3006;SDS011;1513;47.650;10.720;2022-10-31T17:32:07;17.40;;;9.23;;
3006;SDS011;1513;47.650;10.720;2022-10-31T17:35:11;51.90;;;21.20;;
3006;SDS011;1513;47.650;10.720;2022-10-31T17:38:15;26.03;;;11.10;;
3006;SDS011;1513;47.650;10.720;2022-10-31T17:41:19;18.07;;;8.00;;
3006;SDS011;1513;47.650;10.720;2022-10-31T17:44:22;17.27;;;8.17;;
3006;SDS011;1513;47.650;10.720;2022-10-31T17:47:26;28.53;;;10.20;;
3006;SDS011;1513;47.650;10.720;2022-10-31T17:50:29;20.83;;;13.30;;
3006;SDS011;1513;47.650;10.720;2022-10-31T17:53:33;14.10;;;7.43;;
3006;SDS011;1513;47.650;10.720;2022-10-31T17:56:37;23.90;;;9.67;;
3006;SDS011;1513;47.650;10.720;2022-10-31T17:59:41;19.30;;;9.00;;
3006;SDS011;1513;47.650;10.720;2022-10-31T18:02:45;26.73;;;7.93;;
3006;SDS011;1513;47.650;10.720;2022-10-31T18:05:55;15.33;;;7.00;;
3006;SDS011;1513;47.650;10.720;2022-10-31T18:09:03;12.03;;;5.87;;
3006;SDS011;1513;47.650;10.720;2022-10-31T18:12:07;8.93;;;5.43;;
3006;SDS011;1513;47.650;10.720;2022-10-31T18:15:10;12.80;;;6.70;;
3006;SDS011;1513;47.650;10.720;2022-10-31T18:18:14;14.37;;;5.40;;
3006;SDS011;1513;47.650;10.720;2022-10-31T18:21:17;14.73;;;7.20;;
3006;SDS011;1513;47.650;10.720;2022-10-31T18:24:22;77.73;;;28.27;;
3006;SDS011;1513;47.650;10.720;2022-10-31T18:27:25;23.20;;;8.50;;
3006;SDS011;1513;47.650;10.720;2022-10-31T18:30:28;15.57;;;6.77;;
3006;SDS011;1513;47.650;10.720;2022-10-31T18:33:31;14.27;;;7.60;;
3006;SDS011;1513;47.650;10.720;2022-10-31T18:36:35;12.70;;;6.80;;
3006;SDS011;1513;47.650;10.720;2022-10-31T18:39:38;16.00;;;8.00;;
3006;SDS011;1513;47.650;10.720;2022-10-31T18:42:41;11.73;;;6.63;;
3006;SDS011;1513;47.650;10.720;2022-10-31T18:45:45;11.80;;;6.43;;
3006;SDS011;1513;47.650;10.720;2022-10-31T18:48:48;16.53;;;6.10;;
3006;SDS011;1513;47.650;10.720;2022-10-31T18:51:52;20.65;;;10.25;;
3006;SDS011;1513;47.650;10.720;2022-10-31T18:54:55;18.00;;;6.47;;
3006;SDS011;1513;47.650;10.720;2022-10-31T18:57:59;14.20;;;5.03;;
3006;SDS011;1513;47.650;10.720;2022-10-31T19:01:06;12.80;;;6.27;;
3006;SDS011;1513;47.650;10.720;2022-10-31T19:04:10;25.00;;;12.70;;
3006;SDS011;1513;47.650;10.720;2022-10-31T19:07:14;20.55;;;11.30;;
3006;SDS011;1513;47.650;10.720;2022-10-31T19:10:18;23.60;;;11.50;;
3006;SDS011;1513;47.650;10.720;2022-10-31T19:13:22;36.13;;;12.17;;
3006;SDS011;1513;47.650;10.720;2022-10-31T19:16:25;22.50;;;10.43;;
3006;SDS011;1513;47.650;10.720;2022-10-31T19:19:29;15.67;;;7.43;;
3006;SDS011;1513;47.650;10.720;2022-10-31T19:22:33;21.80;;;11.50;;
3006;SDS011;1513;47.650;10.720;2022-10-31T19:25:36;15.47;;;7.00;;
3006;SDS011;1513;47.650;10.720;2022-10-31T19:28:40;18.70;;;8.80;;
3006;SDS011;1513;47.650;10.720;2022-10-31T19:31:44;22.57;;;11.33;;
3006;SDS011;1513;47.650;10.720;2022-10-31T19:34:48;14.00;;;8.93;;
3006;SDS011;1513;47.650;10.720;2022-10-31T19:37:51;16.73;;;8.43;;
3006;SDS011;1513;47.650;10.720;2022-10-31T19:40:58;12.83;;;6.90;;
3006;SDS011;1513;47.650;10.720;2022-10-31T19:44:03;16.90;;;6.95;;
3006;SDS011;1513;47.650;10.720;2022-10-31T19:47:06;9.87;;;5.60;;
3006;SDS011;1513;47.650;10.720;2022-10-31T19:50:10;15.60;;;6.07;;
3006;SDS011;1513;47.650;10.720;2022-10-31T19:53:13;16.83;;;5.70;;
3006;SDS011;1513;47.650;10.720;2022-10-31T19:56:17;12.20;;;5.50;;
3006;SDS011;1513;47.650;10.720;2022-10-31T19:59:22;10.60;;;5.60;;
3006;SDS011;1513;47.650;10.720;2022-10-31T20:02:26;11.70;;;5.87;;
3006;SDS011;1513;47.650;10.720;2022-10-31T20:05:30;12.90;;;5.10;;
3006;SDS011;1513;47.650;10.720;2022-10-31T20:08:34;74.67;;;30.70;;
3006;SDS011;1513;47.650;10.720;2022-10-31T20:11:38;64.22;;;27.42;;
3006;SDS011;1513;47.650;10.720;2022-10-31T20:14:42;56.07;;;23.90;;
3006;SDS011;1513;47.650;10.720;2022-10-31T20:17:46;42.83;;;23.57;;
3006;SDS011;1513;47.650;10.720;2022-10-31T20:20:49;40.47;;;25.10;;
3006;SDS011;1513;47.650;10.720;2022-10-31T20:23:57;48.30;;;30.10;;
3006;SDS011;1513;47.650;10.720;2022-10-31T20:27:02;37.53;;;22.13;;
3006;SDS011;1513;47.650;10.720;2022-10-31T20:30:07;31.67;;;15.77;;
3006;SDS011;1513;47.650;10.720;2022-10-31T20:33:11;26.37;;;15.97;;
3006;SDS011;1513;47.650;10.720;2022-10-31T20:36:14;17.47;;;10.67;;
3006;SDS011;1513;47.650;10.720;2022-10-31T20:39:22;16.70;;;9.67;;
3006;SDS011;1513;47.650;10.720;2022-10-31T20:42:25;17.80;;;10.87;;
3006;SDS011;1513;47.650;10.720;2022-10-31T20:45:29;23.37;;;11.30;;
3006;SDS011;1513;47.650;10.720;2022-10-31T20:48:33;17.77;;;10.00;;
3006;SDS011;1513;47.650;10.720;2022-10-31T20:51:36;18.77;;;9.80;;
3006;SDS011;1513;47.650;10.720;2022-10-31T20:54:40;15.87;;;9.10;;
3006;SDS011;1513;47.650;10.720;2022-10-31T20:57:43;11.70;;;6.90;;
3006;SDS011;1513;47.650;10.720;2022-10-31T21:00:47;17.97;;;7.77;;
3006;SDS011;1513;47.650;10.720;2022-10-31T21:03:50;15.47;;;7.90;;
3006;SDS011;1513;47.650;10.720;2022-10-31T21:06:54;14.70;;;9.03;;
3006;SDS011;1513;47.650;10.720;2022-10-31T21:09:58;21.23;;;13.00;;
3006;SDS011;1513;47.650;10.720;2022-10-31T21:13:01;25.33;;;14.47;;
3006;SDS011;1513;47.650;10.720;2022-10-31T21:16:09;24.60;;;14.65;;
3006;SDS011;1513;47.650;10.720;2022-10-31T21:19:14;22.43;;;10.33;;
3006;SDS011;1513;47.650;10.720;2022-10-31T21:22:18;19.20;;;9.97;;